createdAt,value
2023-04-16T00:01:30.041Z,9.30
2023-04-16T00:03:59.567Z,11.00
2023-04-16T00:06:29.042Z,11.40
2023-04-16T00:08:58.047Z,10.50
2023-04-16T00:11:26.862Z,13.90
2023-04-16T00:13:55.817Z,10.20
2023-04-16T00:16:24.426Z,9.70
2023-04-16T00:18:53.081Z,10.80
2023-04-16T00:21:21.865Z,11.10
2023-04-16T00:23:50.659Z,11.00
2023-04-16T00:26:19.223Z,9.70
2023-04-16T00:28:48.605Z,11.90
2023-04-16T00:31:17.397Z,9.90
2023-04-16T00:33:46.103Z,11.70
2023-04-16T00:36:14.797Z,8.30
2023-04-16T00:38:43.474Z,12.10
2023-04-16T00:41:12.155Z,9.20
2023-04-16T00:43:41.044Z,11.30
2023-04-16T00:46:09.582Z,10.60
2023-04-16T00:48:39.332Z,11.10
2023-04-16T00:51:08.443Z,10.80
2023-04-16T00:53:37.328Z,11.60
2023-04-16T00:56:07.244Z,9.70
2023-04-16T00:58:36.048Z,9.50
2023-04-16T01:01:04.957Z,11.60
2023-04-16T01:03:45.215Z,9.80
2023-04-16T01:06:14.455Z,11.60
2023-04-16T01:08:43.656Z,10.40
2023-04-16T01:11:12.556Z,9.20
2023-04-16T01:13:41.539Z,11.20
2023-04-16T01:16:11.849Z,9.00
2023-04-16T01:18:40.775Z,11.30
2023-04-16T01:21:09.530Z,10.20
2023-04-16T01:23:38.649Z,11.50
2023-04-16T01:26:07.313Z,11.70
2023-04-16T01:28:36.935Z,9.00
2023-04-16T01:31:06.181Z,9.10
2023-04-16T01:33:54.792Z,10.50
2023-04-16T01:36:24.695Z,10.90
2023-04-16T01:38:53.384Z,12.10
2023-04-16T01:41:22.278Z,11.10
2023-04-16T01:43:50.941Z,9.90
2023-04-16T01:46:23.929Z,11.40
2023-04-16T01:48:55.377Z,10.00
2023-04-16T01:51:24.362Z,12.90
2023-04-16T01:53:53.149Z,12.20
2023-04-16T01:56:21.793Z,10.60
2023-04-16T01:58:50.827Z,9.50
2023-04-16T02:01:20.703Z,11.90
2023-04-16T02:03:49.698Z,13.20
2023-04-16T02:06:18.620Z,10.90
2023-04-16T02:08:49.553Z,13.50
2023-04-16T02:11:18.365Z,12.40
2023-04-16T02:13:47.742Z,10.60
2023-04-16T02:16:16.915Z,10.10
2023-04-16T02:19:12.268Z,12.40
2023-04-16T02:21:42.072Z,16.50
2023-04-16T02:24:10.956Z,13.50
2023-04-16T02:26:39.942Z,14.80
2023-04-16T02:29:11.605Z,10.90
2023-04-16T02:31:44.913Z,17.00
2023-04-16T02:34:14.597Z,12.40
2023-04-16T02:36:43.676Z,10.50
2023-04-16T02:39:12.371Z,10.20
2023-04-16T02:41:41.260Z,13.00
2023-04-16T02:44:09.951Z,12.00
2023-04-16T02:46:38.630Z,12.70
2023-04-16T02:49:07.520Z,11.50
2023-04-16T02:51:36.509Z,10.40
2023-04-16T02:54:05.201Z,10.50
2023-04-16T02:56:34.076Z,10.60
2023-04-16T02:59:02.760Z,9.60
2023-04-16T03:01:32.081Z,10.60
2023-04-16T03:04:01.468Z,10.50
2023-04-16T03:06:30.250Z,13.80
2023-04-16T03:08:59.046Z,11.90
2023-04-16T03:11:27.717Z,12.30
2023-04-16T03:13:56.936Z,10.10
2023-04-16T03:16:25.991Z,12.30
2023-04-16T03:18:54.700Z,10.10
2023-04-16T03:21:23.687Z,10.00
2023-04-16T03:23:53.811Z,11.70
2023-04-16T03:26:24.233Z,13.40
2023-04-16T03:28:52.964Z,18.00
2023-04-16T03:31:24.577Z,12.30
2023-04-16T03:33:53.558Z,13.60
2023-04-16T03:36:23.384Z,12.50
2023-04-16T03:38:52.052Z,14.30
2023-04-16T03:41:20.948Z,13.80
2023-04-16T03:43:49.415Z,11.90
2023-04-16T03:46:18.262Z,13.10
2023-04-16T03:48:47.317Z,12.80
2023-04-16T03:51:16.503Z,10.60
2023-04-16T03:53:45.593Z,14.80
2023-04-16T03:56:14.891Z,14.00
2023-04-16T03:58:43.792Z,18.00
2023-04-16T04:01:12.385Z,17.90
2023-04-16T04:03:41.252Z,13.00
2023-04-16T04:06:10.449Z,12.60
2023-04-16T04:08:41.595Z,12.60
2023-04-16T04:11:10.793Z,14.50
2023-04-16T04:13:40.286Z,12.50
2023-04-16T04:16:09.112Z,12.80
2023-04-16T04:18:38.106Z,15.60
2023-04-16T04:21:08.247Z,15.30
2023-04-16T04:23:38.274Z,14.90
2023-04-16T04:26:07.851Z,11.80
2023-04-16T04:28:36.815Z,11.90
2023-04-16T04:31:06.720Z,13.60
2023-04-16T04:33:35.807Z,13.50
2023-04-16T04:36:04.508Z,11.80
2023-04-16T04:38:34.400Z,10.60
2023-04-16T04:41:03.192Z,10.70
2023-04-16T04:43:35.451Z,11.90
2023-04-16T04:46:04.360Z,10.20
2023-04-16T04:48:33.332Z,8.70
2023-04-16T04:51:05.428Z,11.40
2023-04-16T04:53:34.391Z,14.80
2023-04-16T04:56:12.133Z,9.40
2023-04-16T04:58:43.057Z,13.00
2023-04-16T05:01:11.970Z,11.00
2023-04-16T05:03:40.629Z,12.40
2023-04-16T05:06:09.609Z,11.30
2023-04-16T05:08:38.176Z,12.40
2023-04-16T05:11:06.958Z,12.10
2023-04-16T05:13:35.533Z,11.90
2023-04-16T05:16:04.746Z,11.70
2023-04-16T05:18:33.832Z,10.80
2023-04-16T05:21:02.528Z,9.60
2023-04-16T05:23:31.210Z,13.30
2023-04-16T05:25:59.987Z,13.60
2023-04-16T05:28:28.461Z,11.70
2023-04-16T05:30:57.230Z,9.00
2023-04-16T05:33:26.036Z,8.80
2023-04-16T05:35:54.846Z,8.30
2023-04-16T05:38:23.714Z,9.10
2023-04-16T05:40:52.596Z,9.90
2023-04-16T05:43:21.176Z,9.00
2023-04-16T05:45:49.777Z,9.90
2023-04-16T05:48:20.509Z,9.40
2023-04-16T05:50:49.676Z,7.30
2023-04-16T05:53:19.626Z,8.80
2023-04-16T05:55:48.498Z,8.30
2023-04-16T05:58:17.191Z,9.90
2023-04-16T06:00:45.964Z,9.00
2023-04-16T06:03:16.896Z,8.70
2023-04-16T06:05:45.945Z,10.00
2023-04-16T06:08:14.579Z,12.20
2023-04-16T06:10:43.388Z,10.20
2023-04-16T06:13:14.598Z,8.00
2023-04-16T06:15:43.324Z,10.30
2023-04-16T06:18:12.010Z,8.80
2023-04-16T06:20:40.870Z,8.10
2023-04-16T06:23:09.655Z,7.30
2023-04-16T06:25:38.463Z,6.50
2023-04-16T06:28:07.227Z,6.60
2023-04-16T06:30:36.022Z,8.90
2023-04-16T06:33:04.734Z,9.10
2023-04-16T06:35:33.502Z,6.40
2023-04-16T06:38:02.278Z,8.00
2023-04-16T06:40:31.150Z,7.80
2023-04-16T06:42:59.705Z,6.70
2023-04-16T06:45:28.628Z,7.10
2023-04-16T06:47:59.339Z,6.80
2023-04-16T06:50:28.991Z,10.00
2023-04-16T06:52:57.549Z,6.40
2023-04-16T06:55:26.553Z,6.50
2023-04-16T06:57:55.234Z,6.10
2023-04-16T07:00:23.695Z,9.50
2023-04-16T07:02:52.391Z,7.60
2023-04-16T07:05:24.275Z,8.10
2023-04-16T07:07:53.126Z,8.00
2023-04-16T07:10:21.821Z,8.20
2023-04-16T07:12:52.894Z,10.30
2023-04-16T07:15:22.016Z,6.10
2023-04-16T07:17:50.704Z,5.70
2023-04-16T07:20:19.430Z,7.70
2023-04-16T07:22:48.215Z,6.30
2023-04-16T07:25:16.806Z,5.70
2023-04-16T07:27:45.394Z,6.00
2023-04-16T07:30:14.061Z,4.60
2023-04-16T07:32:42.839Z,8.70
2023-04-16T07:35:11.845Z,14.40
2023-04-16T07:37:40.624Z,7.00
2023-04-16T07:40:09.688Z,8.10
2023-04-16T07:42:38.520Z,6.20
2023-04-16T07:45:07.807Z,7.80
2023-04-16T07:47:36.347Z,6.60
2023-04-16T07:50:06.169Z,4.10
2023-04-16T07:52:34.791Z,4.70
2023-04-16T07:55:03.579Z,4.50
2023-04-16T07:57:32.464Z,4.40
2023-04-16T08:00:02.580Z,5.50
2023-04-16T08:02:44.101Z,5.20
2023-04-16T08:05:13.537Z,5.20
2023-04-16T08:07:42.461Z,4.90
2023-04-16T08:10:11.633Z,4.60
2023-04-16T08:12:41.276Z,4.80
2023-04-16T08:15:10.426Z,4.30
2023-04-16T08:17:39.106Z,4.50
2023-04-16T08:20:08.267Z,5.80
2023-04-16T08:22:37.223Z,6.50
2023-04-16T08:25:06.620Z,4.10
2023-04-16T08:27:35.207Z,4.50
2023-04-16T08:30:04.708Z,4.60
2023-04-16T08:32:33.573Z,5.50
2023-04-16T08:35:02.307Z,6.20
2023-04-16T08:37:30.861Z,4.60
2023-04-16T08:39:59.552Z,7.00
2023-04-16T08:42:33.090Z,8.40
2023-04-16T08:45:16.341Z,4.40
2023-04-16T08:47:50.664Z,7.20
2023-04-16T08:50:26.351Z,4.40
2023-04-16T08:53:08.879Z,7.30
2023-04-16T08:55:41.737Z,5.70
2023-04-16T08:58:19.631Z,4.90
2023-04-16T09:00:49.363Z,5.10
2023-04-16T09:03:20.738Z,25.90
2023-04-16T09:05:50.097Z,13.00
2023-04-16T09:08:18.999Z,34.80
2023-04-16T09:10:47.766Z,45.20
2023-04-16T09:13:18.117Z,51.70
2023-04-16T09:15:46.873Z,14.30
2023-04-16T09:18:15.570Z,6.00
2023-04-16T09:20:44.559Z,4.70
2023-04-16T09:23:13.238Z,6.10
2023-04-16T09:25:41.836Z,4.20
2023-04-16T09:28:11.228Z,4.80
2023-04-16T09:30:39.905Z,5.30
2023-04-16T09:33:24.695Z,3.90
2023-04-16T09:35:53.445Z,5.10
2023-04-16T09:38:22.228Z,4.20
2023-04-16T09:41:07.817Z,5.10
2023-04-16T09:43:36.814Z,4.10
2023-04-16T09:46:08.040Z,6.00
2023-04-16T09:48:37.459Z,4.90
2023-04-16T09:51:06.668Z,3.60
2023-04-16T09:53:35.901Z,4.60
2023-04-16T09:56:06.424Z,4.80
2023-04-16T09:58:38.867Z,3.90
2023-04-16T10:01:10.289Z,3.30
2023-04-16T10:03:40.939Z,3.20
2023-04-16T10:06:21.306Z,4.30
2023-04-16T10:08:50.935Z,3.30
2023-04-16T10:11:20.717Z,4.90
2023-04-16T10:13:49.712Z,3.20
2023-04-16T10:16:18.617Z,3.80
2023-04-16T10:18:47.786Z,4.20
2023-04-16T10:21:16.988Z,3.90
2023-04-16T10:23:45.786Z,5.10
2023-04-16T10:26:14.463Z,3.70
2023-04-16T10:28:43.163Z,3.30
2023-04-16T10:31:11.953Z,4.30
2023-04-16T10:33:41.132Z,5.10
2023-04-16T10:36:24.769Z,3.40
2023-04-16T10:38:54.083Z,5.80
2023-04-16T10:41:22.740Z,3.50
2023-04-16T10:43:51.953Z,3.70
2023-04-16T10:46:32.312Z,4.00
2023-04-16T10:49:03.945Z,4.20
2023-04-16T10:51:36.725Z,3.10
2023-04-16T10:54:08.706Z,4.40
2023-04-16T10:56:37.812Z,5.10
2023-04-16T10:59:07.281Z,6.10
2023-04-16T11:01:45.540Z,4.00
2023-04-16T11:04:28.719Z,3.20
2023-04-16T11:07:33.071Z,2.80
2023-04-16T11:10:04.801Z,4.90
2023-04-16T11:12:34.506Z,5.80
2023-04-16T11:15:08.213Z,8.30
2023-04-16T11:17:52.191Z,10.80
2023-04-16T11:20:22.830Z,3.50
2023-04-16T11:22:53.208Z,5.10
2023-04-16T11:25:23.137Z,2.50
2023-04-16T11:27:52.329Z,5.10
2023-04-16T11:30:32.119Z,3.20
2023-04-16T11:33:09.658Z,2.40
2023-04-16T11:35:43.683Z,5.00
2023-04-16T11:38:12.245Z,3.40
2023-04-16T11:40:41.037Z,2.70
2023-04-16T11:43:16.916Z,4.90
2023-04-16T11:46:07.439Z,2.80
2023-04-16T11:49:01.360Z,3.10
2023-04-16T11:51:30.470Z,3.20
2023-04-16T11:53:59.142Z,2.80
2023-04-16T11:56:28.753Z,4.50
2023-04-16T11:59:27.248Z,2.80
2023-04-16T12:01:56.246Z,3.50
2023-04-16T12:04:27.230Z,4.30
2023-04-16T12:07:14.368Z,2.50
2023-04-16T12:09:45.121Z,2.70
2023-04-16T12:12:31.849Z,2.10
2023-04-16T12:15:04.984Z,2.60
2023-04-16T12:17:35.377Z,4.10
2023-04-16T12:20:15.314Z,3.30
2023-04-16T12:22:49.844Z,2.10
2023-04-16T12:25:18.920Z,1.90
2023-04-16T12:27:56.150Z,1.90
2023-04-16T12:30:28.947Z,5.10
2023-04-16T12:33:17.206Z,2.30
2023-04-16T12:35:46.025Z,2.80
2023-04-16T12:38:17.246Z,3.60
2023-04-16T12:40:46.151Z,3.10
2023-04-16T12:43:14.930Z,3.30
2023-04-16T12:45:43.807Z,3.30
2023-04-16T12:48:12.594Z,4.40
2023-04-16T12:50:44.555Z,3.00
2023-04-16T12:53:13.555Z,3.20
2023-04-16T12:55:42.443Z,3.30
2023-04-16T12:58:12.599Z,2.30
2023-04-16T13:00:41.858Z,2.40
2023-04-16T13:03:10.790Z,1.90
2023-04-16T13:05:40.785Z,2.80
2023-04-16T13:08:09.457Z,2.70
2023-04-16T13:10:38.438Z,4.10
2023-04-16T13:13:07.017Z,3.00
2023-04-16T13:15:36.347Z,10.80
2023-04-16T13:18:05.459Z,10.10
2023-04-16T13:20:34.321Z,3.40
2023-04-16T13:23:05.447Z,3.20
2023-04-16T13:25:34.549Z,5.50
2023-04-16T13:28:03.124Z,3.40
2023-04-16T13:30:33.769Z,3.80
2023-04-16T13:33:02.500Z,2.50
2023-04-16T13:35:32.153Z,3.40
2023-04-16T13:38:00.956Z,3.40
2023-04-16T13:40:30.113Z,6.70
2023-04-16T13:42:58.679Z,6.40
2023-04-16T13:45:28.418Z,4.60
2023-04-16T13:47:57.252Z,3.00
2023-04-16T13:50:26.102Z,6.50
2023-04-16T13:52:54.997Z,7.30
2023-04-16T13:55:23.731Z,2.70
2023-04-16T13:57:53.864Z,3.50
2023-04-16T14:00:22.995Z,3.70
2023-04-16T14:02:51.811Z,4.00
2023-04-16T14:05:20.996Z,5.00
2023-04-16T14:07:49.690Z,6.00
2023-04-16T14:10:18.644Z,3.90
2023-04-16T14:12:47.446Z,3.60
2023-04-16T14:15:16.430Z,2.40
2023-04-16T14:17:45.365Z,3.90
2023-04-16T14:20:14.724Z,6.40
2023-04-16T14:22:44.585Z,4.50
2023-04-16T14:25:13.134Z,3.80
2023-04-16T14:27:41.796Z,3.70
2023-04-16T14:30:11.001Z,3.40
2023-04-16T14:32:39.815Z,2.50
2023-04-16T14:35:09.700Z,4.00
2023-04-16T14:37:39.195Z,2.70
2023-04-16T14:40:09.211Z,2.70
2023-04-16T14:42:38.221Z,2.60
2023-04-16T14:45:09.337Z,2.50
2023-04-16T14:47:43.677Z,3.10
2023-04-16T14:50:12.978Z,2.70
2023-04-16T14:52:41.862Z,2.60
2023-04-16T14:55:10.680Z,2.30
2023-04-16T14:57:39.526Z,4.10
2023-04-16T15:00:10.936Z,3.70
2023-04-16T15:02:39.959Z,3.00
2023-04-16T15:05:10.773Z,2.70
2023-04-16T15:07:39.401Z,2.00
2023-04-16T15:10:09.400Z,3.00
2023-04-16T15:12:38.719Z,2.70
2023-04-16T15:15:08.353Z,2.80
2023-04-16T15:17:37.163Z,2.30
2023-04-16T15:20:09.596Z,2.70
2023-04-16T15:22:38.669Z,2.50
2023-04-16T15:25:07.857Z,2.00
2023-04-16T15:27:36.979Z,3.80
2023-04-16T15:30:06.881Z,4.70
2023-04-16T15:32:36.080Z,1.70
2023-04-16T15:35:05.242Z,2.30
2023-04-16T15:37:33.958Z,3.50
2023-04-16T15:40:02.861Z,6.50
2023-04-16T15:42:32.049Z,2.80
2023-04-16T15:45:00.937Z,3.40
2023-04-16T15:47:29.631Z,3.50
2023-04-16T15:49:58.168Z,2.80
2023-04-16T15:52:26.884Z,3.20
2023-04-16T15:54:55.886Z,1.70
2023-04-16T15:57:24.660Z,1.10
2023-04-16T16:02:30.797Z,1.80
2023-04-16T16:05:00.798Z,2.20
2023-04-16T16:07:29.657Z,2.90
2023-04-16T16:09:58.733Z,1.70
2023-04-16T16:12:27.828Z,3.80
2023-04-16T16:14:56.922Z,5.40
2023-04-16T16:17:26.582Z,2.60
2023-04-16T16:19:58.016Z,3.00
2023-04-16T16:22:26.759Z,2.70
2023-04-16T16:24:56.054Z,6.10
2023-04-16T16:27:24.962Z,5.80
2023-04-16T16:29:53.635Z,6.60
2023-04-16T16:32:22.672Z,6.20
2023-04-16T16:34:51.310Z,5.30
2023-04-16T16:37:20.095Z,3.80
2023-04-16T16:39:48.798Z,3.10
2023-04-16T16:42:19.253Z,5.50
2023-04-16T16:44:49.085Z,5.50
2023-04-16T16:47:17.904Z,7.00
2023-04-16T16:49:46.795Z,6.20
2023-04-16T16:52:15.278Z,6.50
2023-04-16T16:54:43.998Z,7.90
2023-04-16T16:57:12.750Z,6.90
2023-04-16T16:59:41.436Z,4.30
2023-04-16T17:02:10.285Z,4.10
2023-04-16T17:04:39.018Z,4.30
2023-04-16T17:07:08.016Z,3.30
2023-04-16T17:09:39.074Z,4.10
2023-04-16T17:12:08.041Z,5.30
2023-04-16T17:14:36.817Z,3.00
2023-04-16T17:17:05.401Z,4.20
2023-04-16T17:19:33.992Z,4.70
2023-04-16T17:22:03.697Z,4.90
2023-04-16T17:24:32.176Z,4.90
2023-04-16T17:27:02.197Z,3.70
2023-04-16T17:29:31.219Z,4.40
2023-04-16T17:32:00.034Z,3.90
2023-04-16T17:34:28.979Z,9.80
2023-04-16T17:36:57.548Z,4.80
2023-04-16T17:39:26.539Z,3.20
2023-04-16T17:41:58.716Z,3.40
2023-04-16T17:44:28.513Z,4.50
2023-04-16T17:46:57.457Z,4.70
2023-04-16T17:49:26.295Z,3.80
2023-04-16T17:51:55.086Z,4.10
2023-04-16T17:54:24.777Z,3.70
2023-04-16T17:56:53.584Z,6.80
2023-04-16T17:59:22.153Z,5.30
2023-04-16T18:01:53.339Z,7.10
2023-04-16T18:04:22.223Z,9.30
2023-04-16T18:06:51.080Z,11.00
2023-04-16T18:09:19.881Z,9.70
2023-04-16T18:11:49.785Z,12.40
2023-04-16T18:14:20.920Z,10.20
2023-04-16T18:16:50.015Z,11.50
2023-04-16T18:19:18.697Z,6.60
2023-04-16T18:21:47.582Z,4.50
2023-04-16T18:24:16.274Z,9.20
2023-04-16T18:26:46.624Z,5.30
2023-04-16T18:29:17.820Z,5.90
2023-04-16T18:31:47.410Z,5.40
2023-04-16T18:34:16.579Z,4.60
2023-04-16T18:36:45.116Z,4.90
2023-04-16T18:39:13.794Z,7.30
2023-04-16T18:41:43.860Z,4.00
2023-04-16T18:44:16.315Z,6.30
2023-04-16T18:46:44.987Z,4.80
2023-04-16T18:49:13.962Z,5.90
2023-04-16T18:51:42.565Z,5.80
2023-04-16T18:54:11.638Z,5.80
2023-04-16T18:56:40.480Z,5.00
2023-04-16T18:59:09.451Z,6.30
2023-04-16T19:01:38.543Z,6.00
2023-04-16T19:04:07.741Z,6.30
2023-04-16T19:06:36.500Z,5.00
2023-04-16T19:09:04.976Z,9.70
2023-04-16T19:11:33.563Z,10.10
2023-04-16T19:14:03.694Z,6.80
2023-04-16T19:16:32.513Z,2.20
2023-04-16T19:19:01.672Z,2.50
2023-04-16T19:21:31.142Z,3.10
2023-04-16T19:23:59.643Z,3.50
2023-04-16T19:26:28.866Z,3.20
2023-04-16T19:28:57.603Z,2.80
2023-04-16T19:31:26.958Z,2.60
2023-04-16T19:33:56.162Z,4.10
2023-04-16T19:36:25.120Z,2.50
2023-04-16T19:38:56.270Z,2.30
2023-04-16T19:41:25.048Z,4.30
2023-04-16T19:43:55.094Z,2.30
2023-04-16T19:46:24.260Z,4.40
2023-04-16T19:48:53.368Z,4.20
2023-04-16T19:51:22.155Z,3.60
2023-04-16T19:53:50.920Z,2.50
2023-04-16T19:56:19.718Z,3.10
2023-04-16T19:58:48.606Z,2.40
2023-04-16T20:01:17.355Z,2.90
2023-04-16T20:03:46.517Z,2.70
2023-04-16T20:06:15.322Z,4.10
2023-04-16T20:08:45.277Z,2.50
2023-04-16T20:11:13.979Z,3.90
2023-04-16T20:13:43.716Z,3.30
2023-04-16T20:16:14.033Z,2.00
2023-04-16T20:18:42.905Z,2.00
2023-04-16T20:21:11.876Z,2.30
2023-04-16T20:23:40.674Z,1.80
2023-04-16T20:26:10.067Z,2.90
2023-04-16T20:28:38.761Z,4.50
2023-04-16T20:31:07.464Z,2.30
2023-04-16T20:33:36.235Z,2.80
2023-04-16T20:36:06.374Z,2.20
2023-04-16T20:38:36.164Z,2.40
2023-04-16T20:41:10.754Z,4.50
2023-04-16T20:43:43.368Z,2.30
2023-04-16T20:46:12.433Z,3.00
2023-04-16T20:48:41.539Z,3.00
2023-04-16T20:51:10.535Z,2.60
2023-04-16T20:53:39.428Z,2.20
2023-04-16T20:56:09.640Z,2.90
2023-04-16T20:58:38.541Z,2.50
2023-04-16T21:01:07.404Z,3.30
2023-04-16T21:03:37.165Z,2.60
2023-04-16T21:06:06.237Z,4.00
2023-04-16T21:08:35.183Z,2.90
2023-04-16T21:11:03.913Z,2.80
2023-04-16T21:13:32.388Z,5.10
2023-04-16T21:16:01.276Z,2.30
2023-04-16T21:18:29.950Z,3.60
2023-04-16T21:20:59.231Z,4.00
2023-04-16T21:23:27.737Z,3.30
2023-04-16T21:25:56.937Z,4.10
2023-04-16T21:28:25.514Z,4.40
2023-04-16T21:30:54.207Z,3.70
2023-04-16T21:33:22.980Z,3.10
2023-04-16T21:35:52.800Z,5.30
2023-04-16T21:38:21.495Z,3.50
2023-04-16T21:40:51.908Z,2.70
2023-04-16T21:43:20.916Z,3.60
2023-04-16T21:45:52.353Z,3.50
2023-04-16T21:48:21.953Z,4.00
2023-04-16T21:51:00.198Z,2.90
2023-04-16T21:53:28.959Z,2.70
2023-04-16T21:55:57.953Z,3.00
2023-04-16T21:58:26.952Z,5.00
2023-04-16T22:00:56.258Z,3.60
2023-04-16T22:03:28.390Z,4.30
2023-04-16T22:06:01.214Z,3.20
2023-04-16T22:08:30.613Z,2.90
2023-04-16T22:11:00.277Z,3.90
2023-04-16T22:13:32.809Z,4.00
2023-04-16T22:16:01.741Z,5.70
2023-04-16T22:18:34.147Z,6.60
2023-04-16T22:21:03.004Z,7.20
2023-04-16T22:23:31.738Z,8.60
2023-04-16T22:26:00.587Z,7.80
2023-04-16T22:28:29.173Z,9.50
2023-04-16T22:30:57.853Z,7.80
2023-04-16T22:33:29.687Z,8.50
2023-04-16T22:36:00.318Z,6.10
2023-04-16T22:38:28.946Z,7.30
2023-04-16T22:41:00.129Z,6.20
2023-04-16T22:43:28.752Z,6.40
2023-04-16T22:46:04.797Z,5.60
2023-04-16T22:48:36.460Z,5.20
2023-04-16T22:51:08.637Z,5.80
2023-04-16T22:53:37.414Z,5.40
2023-04-16T22:56:06.851Z,5.10
2023-04-16T22:58:35.615Z,5.40
2023-04-16T23:01:04.238Z,7.30
2023-04-16T23:03:32.937Z,4.00
2023-04-16T23:06:03.705Z,4.10
2023-04-16T23:08:32.294Z,3.50
2023-04-16T23:11:01.179Z,4.20
2023-04-16T23:13:29.858Z,3.00
2023-04-16T23:15:58.793Z,4.50
2023-04-16T23:18:27.537Z,4.20
2023-04-16T23:20:56.343Z,5.30
2023-04-16T23:23:25.107Z,3.50
2023-04-16T23:25:54.356Z,2.70
2023-04-16T23:28:22.994Z,3.70
2023-04-16T23:30:53.422Z,4.50
2023-04-16T23:33:22.418Z,3.90
2023-04-16T23:35:51.212Z,3.80
2023-04-16T23:38:19.886Z,4.00
2023-04-16T23:40:48.454Z,5.30
2023-04-16T23:43:17.351Z,3.70
2023-04-16T23:45:46.203Z,3.90
2023-04-16T23:48:15.048Z,3.60
2023-04-16T23:50:43.509Z,4.90
2023-04-16T23:53:12.143Z,5.90
2023-04-16T23:55:40.877Z,5.00
2023-04-16T23:58:09.657Z,4.80
